Time;durP1;ratioP1;P1;durP2;ratioP2;P2;SDS_P1;SDS_P2;PMS_P1;PMS_P2;Temp;Humidity;BMP_temperature;BMP_pressure;BME280_temperature;BME280_humidity;BME280_pressure;Samples;Min_cycle;Max_cycle;Signal;HPM_P1;HPM_P2
2022/12/23 00:01:25;;;;;;;26.52;15.05;;;;;;;9.24;100.00;100107.59;5052028;28;20090;-50
2022/12/23 00:03:59;;;;;;;29.67;14.77;;;;;;;9.28;100.00;100107.28;5054439;28;20431;-52
2022/12/23 00:06:27;;;;;;;26.00;14.40;;;;;;;9.27;100.00;100109.97;5054055;28;20044;-51
2022/12/23 00:08:56;;;;;;;24.63;14.30;;;;;;;9.29;100.00;100118.59;5054455;28;20561;-57
2022/12/23 00:11:27;;;;;;;29.60;15.23;;;;;;;9.31;100.00;100121.94;5054676;28;20048;-57
2022/12/23 00:16:49;;;;;;;30.27;15.70;;;;;;;9.27;100.00;100118.72;5053137;28;20139;-57
2022/12/23 00:19:19;;;;;;;26.13;15.38;;;;;;;9.26;100.00;100119.66;5053997;28;20088;-57
2022/12/23 00:21:48;;;;;;;30.50;15.70;;;;;;;9.25;100.00;100122.38;5050437;28;20821;-57
2022/12/23 00:24:19;;;;;;;22.98;14.60;;;;;;;9.28;100.00;100125.66;5051705;28;20063;-57
2022/12/23 00:26:47;;;;;;;31.67;15.88;;;;;;;9.29;100.00;100122.06;5054476;28;20094;-56
2022/12/23 00:29:15;;;;;;;25.65;15.68;;;;;;;9.24;100.00;100126.81;5054097;28;20060;-56
2022/12/23 00:31:43;;;;;;;29.90;14.60;;;;;;;9.23;100.00;100124.28;5054113;28;20052;-56
2022/12/23 00:34:12;;;;;;;25.23;15.40;;;;;;;9.24;100.00;100124.19;5054009;28;20069;-57
2022/12/23 00:36:41;;;;;;;26.40;15.10;;;;;;;9.26;100.00;100139.81;5054070;28;20045;-57
2022/12/23 00:44:43;;;;;;;31.95;16.02;;;;;;;9.28;100.00;100144.00;5053549;28;20443;-57
2022/12/23 00:49:40;;;;;;;31.55;17.10;;;;;;;9.26;100.00;100139.81;5053757;28;20049;-56
2022/12/23 00:49:59;;;;;;;27.05;16.70;;;;;;;9.33;100.00;100140.22;5053750;28;20048;-58
2022/12/23 00:52:28;;;;;;;30.35;16.88;;;;;;;9.33;100.00;100148.91;5050875;28;20041;-58
2022/12/23 00:54:56;;;;;;;32.40;16.15;;;;;;;9.32;100.00;100149.03;5049390;28;20531;-58
2022/12/23 00:57:25;;;;;;;33.13;15.88;;;;;;;9.32;100.00;100143.78;5053632;28;20049;-58
2022/12/23 00:59:53;;;;;;;30.48;16.50;;;;;;;9.33;100.00;100148.91;5053426;28;20068;-58
2022/12/23 01:08:17;;;;;;;30.92;16.25;;;;;;;9.27;100.00;100167.72;5130753;27;20608;-56
2022/12/23 01:10:45;;;;;;;28.17;15.57;;;;;;;9.29;100.00;100171.91;5130783;27;20047;-57
2022/12/23 01:13:13;;;;;;;25.98;15.73;;;;;;;9.27;100.00;100176.44;5128020;27;20043;-57
2022/12/23 01:15:41;;;;;;;33.70;16.67;;;;;;;9.27;100.00;100180.84;5127060;27;20047;-56
2022/12/23 01:18:09;;;;;;;31.77;14.75;;;;;;;9.28;100.00;100178.13;5130859;27;20043;-56
2022/12/23 01:20:38;;;;;;;28.73;15.23;;;;;;;9.25;100.00;100175.69;5130711;27;20052;-57
2022/12/23 01:23:06;;;;;;;27.63;14.27;;;;;;;9.24;100.00;100179.28;5130743;27;20048;-57
2022/12/23 01:25:35;;;;;;;24.73;13.55;;;;;;;9.24;100.00;100181.91;5128449;27;20044;-56
2022/12/23 01:28:04;;;;;;;25.95;13.93;;;;;;;9.28;100.00;100191.25;5126457;27;20497;-56
2022/12/23 01:30:32;;;;;;;24.60;13.15;;;;;;;9.30;100.00;100183.25;5130717;27;20035;-57
2022/12/23 01:33:03;;;;;;;25.02;12.88;;;;;;;9.28;100.00;100188.63;5129050;27;20043;-56
2022/12/23 01:35:31;;;;;;;24.15;13.23;;;;;;;9.24;100.00;100191.53;5130422;27;20058;-57
2022/12/23 01:38:00;;;;;;;33.28;14.82;;;;;;;9.25;100.00;100186.19;5130274;27;20048;-57
2022/12/23 01:40:28;;;;;;;26.52;14.32;;;;;;;9.28;100.00;100185.13;5130308;27;20100;-58
2022/12/23 01:42:56;;;;;;;32.28;14.77;;;;;;;9.26;100.00;100192.28;5125930;27;20047;-57
2022/12/23 01:45:29;;;;;;;27.58;13.45;;;;;;;9.27;100.00;100193.94;5127128;27;20039;-57
2022/12/23 01:48:00;;;;;;;26.58;13.43;;;;;;;9.24;100.00;100202.91;5129601;27;20054;-57
2022/12/23 01:50:32;;;;;;;25.50;13.63;;;;;;;9.21;100.00;100205.72;5130272;27;20126;-58
2022/12/23 01:53:05;;;;;;;26.58;13.45;;;;;;;9.26;100.00;100208.03;5129760;27;20083;-57
2022/12/23 01:55:38;;;;;;;25.73;13.20;;;;;;;9.23;100.00;100209.09;5126520;27;20051;-57
2022/12/23 01:58:13;;;;;;;23.65;13.70;;;;;;;9.14;100.00;100213.16;5126816;27;20043;-57
2022/12/23 02:03:43;;;;;;;23.33;12.60;;;;;;;9.22;100.00;100210.03;5129715;27;20055;-57
2022/12/23 02:09:18;;;;;;;24.90;13.10;;;;;;;9.18;100.00;100219.06;5129696;27;20043;-57
2022/12/23 02:12:02;;;;;;;26.00;13.65;;;;;;;9.19;100.00;100222.50;5126576;27;20122;-57
2022/12/23 02:17:40;;;;;;;30.80;14.70;;;;;;;9.20;100.00;100226.81;5127832;28;20059;-57
2022/12/23 02:20:36;;;;;;;28.65;14.57;;;;;;;9.20;100.00;100234.69;5115860;28;20043;-57
2022/12/23 02:23:29;;;;;;;28.33;13.70;;;;;;;9.21;100.00;100242.44;5115858;28;20130;-57
2022/12/23 02:26:15;;;;;;;25.55;13.98;;;;;;;9.18;100.00;100250.53;5115745;28;20043;-57
2022/12/23 02:29:03;;;;;;;25.83;13.60;;;;;;;9.18;100.00;100253.16;5111896;28;20492;-52
2022/12/23 02:31:39;;;;;;;25.45;13.18;;;;;;;9.19;100.00;100249.59;5113535;28;20046;-52
2022/12/23 02:34:16;;;;;;;26.92;14.20;;;;;;;9.18;100.00;100257.59;5115659;28;20134;-52
2022/12/23 02:36:54;;;;;;;25.65;13.32;;;;;;;9.16;100.00;100254.22;5115432;28;20564;-52
2022/12/23 02:39:33;;;;;;;26.40;14.02;;;;;;;9.20;100.00;100267.00;5115380;28;20035;-51
2022/12/23 02:42:07;;;;;;;29.13;14.05;;;;;;;9.19;100.00;100260.09;5111687;28;20035;-52
2022/12/23 02:44:44;;;;;;;28.25;14.40;;;;;;;9.18;100.00;100270.69;5113780;27;20055;-52
2022/12/23 02:47:19;;;;;;;26.90;14.20;;;;;;;9.17;100.00;100277.72;5115305;28;20047;-50
2022/12/23 02:49:54;;;;;;;27.67;15.00;;;;;;;9.15;100.00;100279.63;5113865;28;20081;-52
2022/12/23 02:52:27;;;;;;;27.00;14.18;;;;;;;9.20;100.00;100277.50;5115154;28;20677;-51
2022/12/23 02:55:00;;;;;;;25.63;14.38;;;;;;;9.18;100.00;100279.41;5112654;28;20048;-51
2022/12/23 02:57:34;;;;;;;27.15;14.50;;;;;;;9.15;100.00;100284.88;5111298;28;20498;-50
2022/12/23 03:00:04;;;;;;;24.88;14.32;;;;;;;9.14;100.00;100288.44;5114364;28;20052;-51
2022/12/23 03:02:38;;;;;;;25.75;14.23;;;;;;;9.18;100.00;100294.31;5114219;28;20044;-53
2022/12/23 03:05:22;;;;;;;24.25;13.95;;;;;;;9.20;100.00;100302.91;5111768;28;20048;-53
2022/12/23 03:07:52;;;;;;;26.30;14.60;;;;;;;9.20;100.00;100314.22;5113123;28;20044;-52
2022/12/23 03:10:30;;;;;;;26.80;15.52;;;;;;;9.17;100.00;100311.81;5114740;28;20035;-54
2022/12/23 03:13:07;;;;;;;29.45;14.95;;;;;;;9.15;100.00;100316.34;5114743;28;20123;-52
2022/12/23 03:15:41;;;;;;;28.60;15.10;;;;;;;9.17;100.00;100314.44;5114384;28;20055;-52
2022/12/23 03:18:22;;;;;;;27.35;16.05;;;;;;;9.16;100.00;100320.63;5114655;28;20478;-53
2022/12/23 03:20:53;;;;;;;31.58;16.58;;;;;;;9.16;100.00;100325.88;5114414;28;20047;-51
2022/12/23 03:23:26;;;;;;;31.20;16.25;;;;;;;9.14;100.00;100322.53;5114292;28;20071;-54
2022/12/23 03:25:58;;;;;;;;;;;;;;;9.16;100.00;100311.94;5115006;28;20044;-53
2022/12/23 03:28:33;;;;;;;29.08;15.38;;;;;;;9.16;100.00;100310.13;5113036;28;19926;-52
2022/12/23 03:31:03;;;;;;;31.42;16.55;;;;;;;9.18;100.00;100307.44;5113471;28;20044;-54
2022/12/23 03:33:37;;;;;;;30.88;16.63;;;;;;;9.19;100.00;100311.72;5114679;28;20101;-53
2022/12/23 03:36:10;;;;;;;30.35;14.95;;;;;;;9.14;100.00;100314.66;5114313;28;20047;-50
2022/12/23 03:38:41;;;;;;;32.58;16.13;;;;;;;9.09;100.00;100303.63;5113536;28;20483;-49
2022/12/23 03:41:16;;;;;;;30.10;14.25;;;;;;;9.04;100.00;100305.72;5114096;28;20127;-51
2022/12/23 03:43:50;;;;;;;22.60;12.43;;;;;;;9.04;100.00;100298.69;5113599;28;20125;-52
2022/12/23 03:46:23;;;;;;;23.05;11.98;;;;;;;9.07;100.00;100300.28;5112602;28;20079;-53
2022/12/23 03:48:55;;;;;;;20.63;11.15;;;;;;;9.05;100.00;100299.53;5112739;28;20039;-52
2022/12/23 03:51:31;;;;;;;19.73;10.55;;;;;;;9.05;100.00;100303.00;5113951;28;20044;-52
2022/12/23 03:54:03;;;;;;;22.55;11.52;;;;;;;9.01;100.00;100304.13;5113989;28;20391;-52
2022/12/23 03:56:36;;;;;;;21.35;11.30;;;;;;;9.07;100.00;100297.66;5113370;28;20035;-51
2022/12/23 03:59:12;;;;;;;26.52;11.10;;;;;;;9.03;100.00;100310.13;5110379;28;20078;-51
2022/12/23 04:02:01;;;;;;;22.73;12.25;;;;;;;9.06;100.00;100299.44;5111774;28;20104;-53
2022/12/23 04:04:43;;;;;;;20.50;10.80;;;;;;;8.94;100.00;100308.13;5113687;28;20075;-50
2022/12/23 04:07:17;;;;;;;22.00;10.27;;;;;;;8.95;100.00;100294.91;5113580;28;20044;-49
2022/12/23 04:09:47;;;;;;;21.42;10.02;;;;;;;8.93;100.00;100307.28;5113796;28;20525;-53
2022/12/23 04:12:15;;;;;;;19.25;9.38;;;;;;;8.92;100.00;100326.59;5113787;28;20043;-51
2022/12/23 04:14:47;;;;;;;18.08;9.43;;;;;;;8.93;100.00;100332.66;5113636;28;20063;-53
2022/12/23 04:17:16;;;;;;;18.30;8.40;;;;;;;8.94;100.00;100329.97;5113674;28;20476;-49
2022/12/23 04:19:46;;;;;;;18.33;8.50;;;;;;;8.93;100.00;100328.28;5112221;28;20440;-51
2022/12/23 04:22:16;;;;;;;15.60;8.73;;;;;;;8.98;100.00;100337.63;5108761;28;20052;-53
2022/12/23 04:24:44;;;;;;;17.10;8.52;;;;;;;9.00;100.00;100336.56;5110620;28;20044;-58
2022/12/23 04:27:14;;;;;;;17.38;9.00;;;;;;;8.96;100.00;100346.41;5113498;28;20063;-57
2022/12/23 04:29:42;;;;;;;16.60;8.45;;;;;;;8.94;100.00;100350.94;5113165;28;20047;-57
2022/12/23 04:32:10;;;;;;;15.48;8.48;;;;;;;8.93;100.00;100351.00;5112110;28;20078;-57
2022/12/23 04:34:38;;;;;;;17.30;7.68;;;;;;;8.95;100.00;100355.22;5111836;28;20043;-58
2022/12/23 04:37:08;;;;;;;17.25;8.30;;;;;;;8.95;100.00;100357.00;5109848;28;21078;-58
2022/12/23 04:39:36;;;;;;;15.63;8.20;;;;;;;8.94;100.00;100361.44;5111612;28;20040;-57
2022/12/23 04:42:04;;;;;;;16.25;8.88;;;;;;;8.91;100.00;100361.59;5112358;28;20524;-57
2022/12/23 04:44:32;;;;;;;16.60;8.50;;;;;;;8.92;100.00;100362.47;5111489;28;20138;-57
2022/12/23 04:47:00;;;;;;;16.20;7.82;;;;;;;8.90;100.00;100357.34;5113026;28;20053;-56
2022/12/23 04:49:29;;;;;;;16.50;7.97;;;;;;;8.89;100.00;100353.03;5113013;28;20047;-57
2022/12/23 04:51:57;;;;;;;13.48;7.15;;;;;;;8.89;100.00;100360.03;5112855;28;20042;-56
2022/12/23 04:54:26;;;;;;;12.23;6.97;;;;;;;8.84;100.00;100349.03;5109145;28;20048;-56
2022/12/23 04:56:54;;;;;;;15.05;8.07;;;;;;;8.88;100.00;100350.50;5108440;28;20108;-57
2022/12/23 04:59:23;;;;;;;13.85;7.72;;;;;;;8.81;100.00;100355.31;5113010;28;20135;-56
2022/12/23 05:01:53;;;;;;;13.30;7.90;;;;;;;8.81;100.00;100355.31;5112904;28;20039;-57
2022/12/23 05:04:21;;;;;;;14.80;8.20;;;;;;;8.79;100.00;100352.78;5112922;28;20052;-56
2022/12/23 05:06:50;;;;;;;13.98;8.35;;;;;;;8.80;100.00;100351.00;5112589;28;20063;-56
2022/12/23 05:09:18;;;;;;;14.65;8.77;;;;;;;8.79;100.00;100346.69;5109967;28;20110;-57
2022/12/23 05:11:47;;;;;;;15.68;8.40;;;;;;;8.78;100.00;100340.63;5109929;28;20044;-56
2022/12/23 05:14:16;;;;;;;14.85;9.10;;;;;;;8.80;100.00;100337.88;5109915;28;20051;-56
2022/12/23 05:16:44;;;;;;;13.77;7.82;;;;;;;8.78;100.00;100337.13;5106130;28;20044;-56
2022/12/23 05:19:12;;;;;;;14.55;8.40;;;;;;;8.78;100.00;100339.75;5111411;28;20521;-57
2022/12/23 05:21:40;;;;;;;16.42;8.13;;;;;;;8.79;100.00;100341.44;5112195;28;20059;-57
2022/12/23 05:24:08;;;;;;;17.90;9.25;;;;;;;8.78;100.00;100358.09;5112375;28;20051;-57
2022/12/23 05:26:37;;;;;;;16.33;8.55;;;;;;;8.80;100.00;100364.09;5111136;28;20765;-56
2022/12/23 05:29:06;;;;;;;16.27;9.50;;;;;;;8.78;100.00;100371.22;5108757;28;20583;-57
2022/12/23 05:31:35;;;;;;;17.90;9.43;;;;;;;8.78;100.00;100373.84;5111511;28;20109;-57
2022/12/23 05:34:03;;;;;;;18.60;9.60;;;;;;;8.73;100.00;100371.53;5112704;28;20451;-57
2022/12/23 05:36:34;;;;;;;18.05;9.73;;;;;;;8.73;100.00;100375.94;5112000;28;20051;-57
2022/12/23 05:39:02;;;;;;;17.52;9.57;;;;;;;8.74;100.00;100385.47;5109531;28;20492;-57
2022/12/23 05:41:30;;;;;;;17.85;9.30;;;;;;;8.72;100.00;100377.69;5110537;28;20040;-57
2022/12/23 05:43:58;;;;;;;17.27;10.10;;;;;;;8.76;100.00;100394.91;5112684;28;20039;-57
2022/12/23 05:46:30;;;;;;;20.63;10.73;;;;;;;8.76;100.00;100400.16;5112565;28;20501;-57
2022/12/23 05:48:58;;;;;;;19.42;11.07;;;;;;;8.75;100.00;100400.25;5109162;28;20052;-57
2022/12/23 05:51:26;;;;;;;18.35;10.77;;;;;;;8.74;100.00;100398.56;5109889;28;20471;-57
2022/12/23 05:53:54;;;;;;;21.65;12.15;;;;;;;8.73;100.00;100412.66;5114442;28;20383;-57
2022/12/23 05:56:23;;;;;;;20.80;11.13;;;;;;;8.72;100.00;100403.09;5116182;27;20364;-57
2022/12/23 05:58:53;;;;;;;21.02;12.15;;;;;;;8.72;100.00;100395.22;5113543;28;20036;-57
2022/12/23 06:01:21;;;;;;;21.92;12.18;;;;;;;8.69;100.00;100391.03;5111451;28;20726;-57
2022/12/23 06:03:51;;;;;;;20.48;11.80;;;;;;;8.71;100.00;100397.03;5116391;27;20041;-57
2022/12/23 06:06:19;;;;;;;22.15;12.30;;;;;;;8.72;100.00;100400.47;5115951;28;20448;-57
2022/12/23 06:08:47;;;;;;;20.15;12.15;;;;;;;8.71;100.00;100393.53;5114461;28;20040;-57
2022/12/23 06:11:21;;;;;;;23.15;12.80;;;;;;;8.68;100.00;100401.59;5111519;28;20047;-57
2022/12/23 06:13:51;;;;;;;22.15;11.75;;;;;;;8.68;100.00;100399.81;5115346;28;20143;-57
2022/12/23 06:16:19;;;;;;;20.17;10.90;;;;;;;8.62;100.00;100403.69;5116124;28;20048;-57
2022/12/23 06:18:47;;;;;;;22.15;10.38;;;;;;;8.64;100.00;100390.47;5116209;28;20387;-57
2022/12/23 06:21:17;;;;;;;20.55;10.70;;;;;;;8.58;100.00;100385.63;5115903;28;20410;-57
2022/12/23 06:23:45;;;;;;;18.17;10.10;;;;;;;8.60;100.00;100392.47;5115290;28;20062;-57
2022/12/23 06:26:13;;;;;;;19.45;10.50;;;;;;;8.57;100.00;100391.81;5112605;28;20506;-57
2022/12/23 06:28:41;;;;;;;18.83;10.45;;;;;;;8.57;100.00;100392.63;5111846;28;20105;-57
2022/12/23 06:31:09;;;;;;;18.27;9.57;;;;;;;8.55;100.00;100389.28;5115008;28;20073;-57
2022/12/23 06:33:37;;;;;;;16.70;9.77;;;;;;;8.55;100.00;100386.66;5115046;28;20122;-56
2022/12/23 06:36:07;;;;;;;18.27;9.25;;;;;;;8.56;100.00;100387.50;5113709;28;20092;-57
2022/12/23 06:38:37;;;;;;;16.25;8.77;;;;;;;8.55;100.00;100378.81;5112518;28;20490;-56
2022/12/23 06:41:05;;;;;;;17.25;8.88;;;;;;;8.59;100.00;100372.44;5115067;28;20036;-54
2022/12/23 06:43:33;;;;;;;17.73;8.80;;;;;;;8.57;100.00;100378.69;5114804;28;20039;-56
2022/12/23 06:46:01;;;;;;;15.95;9.27;;;;;;;8.56;100.00;100377.88;5111081;27;20055;-57
2022/12/23 06:48:30;;;;;;;17.05;9.65;;;;;;;8.55;100.00;100394.53;5113198;28;20525;-56
2022/12/23 06:50:58;;;;;;;20.73;9.45;;;;;;;8.53;100.00;100395.56;5115174;28;20036;-56
2022/12/23 06:53:26;;;;;;;18.13;10.32;;;;;;;8.55;100.00;100397.16;5112206;28;20101;-56
2022/12/23 06:56:00;;;;;;;16.83;9.30;;;;;;;8.57;100.00;100395.25;5112304;28;20043;-57
2022/12/23 06:58:29;;;;;;;16.63;9.52;;;;;;;8.59;100.00;100396.03;5115037;28;20074;-56
2022/12/23 07:00:57;;;;;;;18.17;9.60;;;;;;;8.56;100.00;100409.31;5111043;28;20079;-57
2022/12/23 07:03:25;;;;;;;15.27;9.18;;;;;;;8.56;100.00;100417.19;5110720;28;20079;-58
2022/12/23 07:05:53;;;;;;;15.27;8.55;;;;;;;8.52;100.00;100420.94;5113348;28;20065;-56
2022/12/23 07:08:22;;;;;;;15.73;8.70;;;;;;;8.50;100.00;100422.81;5114438;28;20063;-57
2022/12/23 07:10:50;;;;;;;17.20;9.50;;;;;;;8.47;100.00;100428.25;5114287;28;20044;-57
2022/12/23 07:13:20;;;;;;;16.23;9.18;;;;;;;8.47;100.00;100441.34;5114553;28;20118;-57
2022/12/23 07:15:48;;;;;;;19.00;9.23;;;;;;;8.46;100.00;100439.66;5114364;28;20362;-57
2022/12/23 07:18:16;;;;;;;15.18;8.57;;;;;;;8.44;100.00;100444.16;5114486;28;20494;-52
2022/12/23 07:20:44;;;;;;;17.33;9.38;;;;;;;8.44;100.00;100452.00;5114208;28;20498;-52
2022/12/23 07:23:14;;;;;;;15.13;9.25;;;;;;;8.43;100.00;100455.56;5114117;28;20052;-51
2022/12/23 07:25:43;;;;;;;17.10;9.25;;;;;;;8.40;100.00;100461.00;5114023;28;20051;-53
2022/12/23 07:28:11;;;;;;;15.35;8.48;;;;;;;8.42;100.00;100459.09;5114050;28;20514;-50
2022/12/23 07:30:40;;;;;;;15.52;8.98;;;;;;;8.40;100.00;100448.72;5113946;28;20040;-57
2022/12/23 07:33:09;;;;;;;17.13;9.30;;;;;;;8.40;100.00;100450.50;5113967;28;20043;-57
2022/12/23 07:35:37;;;;;;;18.08;10.05;;;;;;;8.41;100.00;100454.78;5114028;28;20534;-57
2022/12/23 07:38:05;;;;;;;15.20;8.77;;;;;;;8.41;100.00;100457.41;5112943;28;20047;-56
2022/12/23 07:40:33;;;;;;;19.17;9.20;;;;;;;8.41;100.00;100454.78;5109969;28;20116;-57
2022/12/23 07:43:01;;;;;;;17.25;9.65;;;;;;;8.40;100.00;100459.19;5112503;28;20044;-57
2022/12/23 07:45:30;;;;;;;16.70;9.77;;;;;;;8.37;100.00;100456.78;5113704;28;20122;-56
2022/12/23 07:48:01;;;;;;;15.15;9.10;;;;;;;8.38;100.00;100447.13;5113956;28;20048;-57
2022/12/23 07:50:30;;;;;;;16.33;8.88;;;;;;;8.38;100.00;100449.75;5113885;28;20048;-57
2022/12/23 07:52:58;;;;;;;17.70;10.02;;;;;;;8.35;100.00;100435.06;5113970;28;20035;-52
2022/12/23 07:55:30;;;;;;;21.17;10.48;;;;;;;8.36;100.00;100443.78;5112810;28;20063;-57
2022/12/23 07:57:58;;;;;;;16.10;9.13;;;;;;;8.37;100.00;100441.06;5113888;28;20050;-57
2022/12/23 08:00:26;;;;;;;17.73;9.98;;;;;;;8.35;100.00;100431.59;5113963;27;20050;-57
2022/12/23 08:02:54;;;;;;;17.17;9.27;;;;;;;8.33;100.00;100428.22;5113826;28;21123;-49
2022/12/23 08:05:24;;;;;;;18.08;9.55;;;;;;;8.35;100.00;100431.59;5114091;28;20475;-52
2022/12/23 08:07:52;;;;;;;18.58;10.15;;;;;;;8.34;100.00;100425.50;5112942;28;20060;-56
2022/12/23 08:10:20;;;;;;;18.05;9.55;;;;;;;8.36;100.00;100433.28;5110996;28;20047;-56
2022/12/23 08:12:49;;;;;;;17.60;9.30;;;;;;;8.34;100.00;100446.47;5109869;28;20469;-56
2022/12/23 08:15:17;;;;;;;18.90;9.40;;;;;;;8.35;100.00;100442.91;5113183;27;20452;-56
2022/12/23 08:17:45;;;;;;;15.57;8.77;;;;;;;8.36;100.00;100431.50;5112603;28;20566;-57
2022/12/23 08:20:13;;;;;;;16.10;9.43;;;;;;;8.38;100.00;100434.03;5113194;28;20040;-56
2022/12/23 08:22:43;;;;;;;15.73;8.65;;;;;;;8.38;100.00;100437.47;5113031;28;20574;-51
2022/12/23 08:25:11;;;;;;;16.30;8.75;;;;;;;8.36;100.00;100435.91;5113244;28;20055;-52
2022/12/23 08:27:39;;;;;;;15.88;8.65;;;;;;;8.37;100.00;100434.97;5112738;28;20051;-49
2022/12/23 08:30:09;;;;;;;16.25;9.40;;;;;;;8.38;100.00;100436.66;5111834;28;20507;-50
2022/12/23 08:32:37;;;;;;;16.13;9.05;;;;;;;8.37;100.00;100434.97;5107450;28;20459;-49
2022/12/23 08:35:06;;;;;;;15.60;8.65;;;;;;;8.39;100.00;100433.09;5109969;28;20055;-51
2022/12/23 08:37:34;;;;;;;16.00;8.93;;;;;;;8.28;100.00;100426.72;5112871;28;20078;-51
2022/12/23 08:40:04;;;;;;;15.55;8.35;;;;;;;8.32;100.00;100439.63;5113093;28;20090;-48
2022/12/23 08:42:33;;;;;;;17.10;8.18;;;;;;;8.35;100.00;100429.81;5113185;28;20126;-51
2022/12/23 08:45:01;;;;;;;15.40;8.38;;;;;;;8.37;100.00;100409.63;5113138;28;20054;-51
2022/12/23 08:47:29;;;;;;;15.90;8.27;;;;;;;8.37;100.00;100414.84;5113073;28;20126;-50
2022/12/23 08:49:57;;;;;;;16.67;9.18;;;;;;;8.37;100.00;100409.63;5110230;27;20051;-49
2022/12/23 08:52:25;;;;;;;15.50;9.25;;;;;;;8.40;100.00;100405.97;5110041;28;20055;-48
2022/12/23 08:54:53;;;;;;;17.30;9.38;;;;;;;8.41;100.00;100405.88;5112441;28;20044;-51
2022/12/23 08:57:23;;;;;;;17.13;9.52;;;;;;;8.43;100.00;100387.41;5112981;28;20051;-49
2022/12/23 08:59:51;;;;;;;16.48;9.30;;;;;;;8.38;100.00;100394.72;5112837;28;20047;-51
2022/12/23 09:02:19;;;;;;;15.25;8.63;;;;;;;8.41;100.00;100392.75;5113113;28;20059;-53
2022/12/23 09:04:48;;;;;;;18.20;9.95;;;;;;;8.38;100.00;100399.97;5112785;28;20139;-52
2022/12/23 09:07:16;;;;;;;18.52;10.60;;;;;;;8.29;100.00;100389.13;5111890;28;20055;-54
2022/12/23 09:09:44;;;;;;;18.40;11.00;;;;;;;8.38;100.00;100389.47;5109305;28;20075;-51
2022/12/23 09:12:12;;;;;;;19.67;11.25;;;;;;;8.41;100.00;100386.66;5111067;28;20059;-48
2022/12/23 09:14:46;;;;;;;20.70;11.05;;;;;;;8.46;100.00;100379.38;5110713;28;20082;-48
2022/12/23 09:17:14;;;;;;;25.10;11.68;;;;;;;8.47;100.00;100378.44;5107996;28;20051;-51
2022/12/23 09:19:42;;;;;;;25.90;12.68;;;;;;;8.46;100.00;100388.06;5112183;28;20052;-51
2022/12/23 09:22:19;;;;;;;25.92;12.80;;;;;;;8.48;100.00;100389.75;5112758;28;20451;-49
2022/12/23 09:24:47;;;;;;;26.02;12.13;;;;;;;8.51;100.00;100385.19;5112692;28;20075;-49
2022/12/23 09:27:18;;;;;;;27.30;13.18;;;;;;;8.53;100.00;100383.28;5112952;28;20122;-48
2022/12/23 09:29:47;;;;;;;25.45;13.30;;;;;;;8.54;100.00;100378.91;5112661;28;20039;-49
2022/12/23 09:32:16;;;;;;;27.73;13.45;;;;;;;8.60;100.00;100360.16;5111789;28;20104;-50
2022/12/23 09:34:44;;;;;;;28.33;14.20;;;;;;;8.55;100.00;100376.19;5116654;28;20233;-52
2022/12/23 09:37:15;;;;;;;26.60;13.30;;;;;;;8.56;100.00;100364.75;5116285;28;20071;-51
2022/12/23 09:39:43;;;;;;;27.05;13.70;;;;;;;8.57;100.00;100376.91;5116021;28;20051;-51
2022/12/23 09:42:28;;;;;;;35.58;15.90;;;;;;;8.62;100.00;100368.78;5116406;28;20427;-50
2022/12/23 09:45:11;;;;;;;32.80;15.52;;;;;;;8.59;100.00;100380.28;5113282;28;20055;-49
2022/12/23 09:47:41;;;;;;;31.85;14.88;;;;;;;8.56;100.00;100374.38;5113119;28;20513;-50
2022/12/23 09:50:20;;;;;;;36.00;15.45;;;;;;;8.63;100.00;100367.84;5116524;28;20096;-52
2022/12/23 09:52:57;;;;;;;35.17;14.23;;;;;;;8.54;100.00;100357.94;5115706;28;20043;-52
2022/12/23 09:55:33;;;;;;;38.47;16.58;;;;;;;8.51;100.00;100358.97;5116163;28;20439;-51
2022/12/23 09:58:06;;;;;;;38.75;16.23;;;;;;;8.56;100.00;100354.28;5116300;28;20048;-52
2022/12/23 10:00:42;;;;;;;37.83;15.70;;;;;;;8.58;100.00;100352.38;5116284;28;20051;-50
2022/12/23 10:03:19;;;;;;;33.35;14.30;;;;;;;8.59;100.00;100345.38;5116135;28;20052;-52
2022/12/23 10:05:59;;;;;;;40.80;15.88;;;;;;;8.61;100.00;100344.31;5116030;28;20047;-51
2022/12/23 10:08:33;;;;;;;36.50;15.30;;;;;;;8.61;100.00;100344.31;5116086;28;20047;-51
2022/12/23 10:11:06;;;;;;;36.03;14.98;;;;;;;8.60;100.00;100341.78;5115969;27;20100;-50
2022/12/23 10:13:39;;;;;;;35.58;14.75;;;;;;;8.63;100.00;100336.38;5115996;28;20043;-51
2022/12/23 10:16:12;;;;;;;;;;;;;;;8.62;100.00;100327.66;5116486;28;20661;-52
2022/12/23 10:18:48;;;;;;;34.55;15.27;;;;;;;8.67;100.00;100316.88;5115859;28;19927;-51
2022/12/23 10:21:24;;;;;;;34.70;13.95;;;;;;;8.63;100.00;100304.94;5115856;28;20097;-50
2022/12/23 10:23:54;;;;;;;34.20;14.15;;;;;;;8.61;100.00;100294.50;5115962;28;20066;-52
2022/12/23 10:26:25;;;;;;;37.08;14.95;;;;;;;8.60;100.00;100285.00;5115355;28;20059;-50
2022/12/23 10:28:59;;;;;;;34.67;15.35;;;;;;;8.65;100.00;100289.09;5111991;28;20548;-52
2022/12/23 10:31:41;;;;;;;28.63;14.35;;;;;;;8.65;100.00;100284.69;5112961;28;20042;-52
2022/12/23 10:34:19;;;;;;;30.30;13.38;;;;;;;8.66;100.00;100278.50;5114234;28;20051;-52
2022/12/23 10:36:58;;;;;;;32.97;14.30;;;;;;;8.66;100.00;100285.50;5115662;28;20051;-51
2022/12/23 10:39:35;;;;;;;30.38;14.07;;;;;;;8.71;100.00;100275.56;5115100;28;20112;-52
2022/12/23 10:42:13;;;;;;;33.58;15.50;;;;;;;8.72;100.00;100272.00;5115510;28;20429;-51
2022/12/23 10:45:01;;;;;;;31.90;15.30;;;;;;;8.78;100.00;100268.97;5115334;28;20044;-51
2022/12/23 10:47:45;;;;;;;31.58;14.65;;;;;;;8.78;100.00;100268.97;5115387;28;20075;-51
2022/12/23 10:50:34;;;;;;;29.65;14.57;;;;;;;8.71;100.00;100265.06;5113512;28;20055;-49
2022/12/23 10:53:08;;;;;;;33.80;15.20;;;;;;;8.74;100.00;100259.63;5111724;28;20105;-52
2022/12/23 10:55:38;;;;;;;32.63;16.20;;;;;;;8.79;100.00;100260.16;5114919;28;20047;-51
2022/12/23 10:58:09;;;;;;;33.53;15.63;;;;;;;8.77;100.00;100255.03;5113207;28;20058;-52
2022/12/23 11:00:41;;;;;;;33.70;15.88;;;;;;;8.77;100.00;100248.94;5110949;28;20058;-49
2022/12/23 11:03:18;;;;;;;35.38;16.90;;;;;;;8.79;100.00;100245.28;5112149;28;20039;-52
2022/12/23 11:05:50;;;;;;;34.47;16.48;;;;;;;8.83;100.00;100243.28;5114546;28;20383;-52
2022/12/23 11:08:20;;;;;;;37.85;18.17;;;;;;;8.79;100.00;100241.81;5114473;28;20040;-53
2022/12/23 11:10:49;;;;;;;34.17;17.42;;;;;;;8.82;100.00;100235.53;5113323;28;20575;-52
2022/12/23 11:13:25;;;;;;;37.45;18.20;;;;;;;8.85;100.00;100230.91;5114802;28;20039;-52
2022/12/23 11:16:11;;;;;;;38.47;19.52;;;;;;;8.91;100.00;100245.38;5114485;28;20040;-52
2022/12/23 11:18:53;;;;;;;37.45;17.73;;;;;;;8.91;100.00;100240.16;5114064;28;20071;-50
2022/12/23 11:21:21;;;;;;;37.65;17.95;;;;;;;8.85;100.00;100235.31;5114582;28;20043;-53
2022/12/23 11:24:08;;;;;;;36.60;19.55;;;;;;;8.87;100.00;100230.81;5114658;28;20043;-52
2022/12/23 11:26:36;;;;;;;41.83;19.88;;;;;;;8.91;100.00;100225.25;5114537;28;20100;-49
2022/12/23 11:29:07;;;;;;;46.88;22.17;;;;;;;8.95;100.00;100216.22;5114313;28;20071;-52
2022/12/23 11:31:36;;;;;;;44.33;19.80;;;;;;;8.92;100.00;100211.19;5114441;28;20050;-52
2022/12/23 11:34:13;;;;;;;47.35;21.98;;;;;;;8.91;100.00;100216.53;5114468;28;20402;-51
2022/12/23 11:36:42;;;;;;;43.55;21.65;;;;;;;8.91;100.00;100220.00;5114434;28;20039;-53
2022/12/23 11:39:21;;;;;;;49.35;23.63;;;;;;;8.93;100.00;100212.88;5114470;28;20039;-52
2022/12/23 11:41:53;;;;;;;52.15;22.10;;;;;;;8.94;100.00;100211.94;5114159;28;20055;-52
2022/12/23 11:44:26;;;;;;;45.80;21.23;;;;;;;8.95;100.00;100208.34;5113487;28;20378;-54
2022/12/23 11:46:54;;;;;;;54.55;24.17;;;;;;;8.89;100.00;100214.03;5109800;28;20126;-53
2022/12/23 11:49:26;;;;;;;48.28;22.98;;;;;;;8.88;100.00;100214.97;5109676;28;20437;-53
2022/12/23 11:52:09;;;;;;;47.90;22.50;;;;;;;8.86;100.00;100201.13;5113128;28;20035;-54
2022/12/23 11:54:39;;;;;;;48.53;22.67;;;;;;;8.96;100.00;100183.81;5114018;28;20487;-50